sensor_id;sensor_type;location;lat;lon;timestamp;pressure;altitude;pressure_sealevel;temperature;humidity
46876;BME280;32866;50.160;14.768;2022-12-08T00:01:19;98857.13;;;1.56;100.00
46876;BME280;32866;50.160;14.768;2022-12-08T00:03:46;98860.97;;;1.55;100.00
46876;BME280;32866;50.160;14.768;2022-12-08T00:06:21;98845.94;;;1.47;100.00
46876;BME280;32866;50.160;14.768;2022-12-08T00:09:05;98850.97;;;1.41;100.00
46876;BME280;32866;50.160;14.768;2022-12-08T00:11:46;98865.25;;;1.53;100.00
46876;BME280;32866;50.160;14.768;2022-12-08T00:14:12;98835.94;;;1.33;100.00
46876;BME280;32866;50.160;14.768;2022-12-08T00:16:38;98855.22;;;1.46;100.00
46876;BME280;32866;50.160;14.768;2022-12-08T00:19:03;98840.56;;;1.43;100.00
46876;BME280;32866;50.160;14.768;2022-12-08T00:21:28;98833.66;;;1.28;100.00
46876;BME280;32866;50.160;14.768;2022-12-08T00:23:54;98842.13;;;1.30;100.00
46876;BME280;32866;50.160;14.768;2022-12-08T00:26:20;98859.06;;;1.48;100.00
46876;BME280;32866;50.160;14.768;2022-12-08T00:28:45;98840.94;;;1.38;100.00
46876;BME280;32866;50.160;14.768;2022-12-08T00:31:10;98865.63;;;1.44;100.00
46876;BME280;32866;50.160;14.768;2022-12-08T00:33:36;98846.31;;;1.45;100.00
46876;BME280;32866;50.160;14.768;2022-12-08T00:36:10;98849.44;;;1.47;100.00
46876;BME280;32866;50.160;14.768;2022-12-08T00:38:36;98855.59;;;1.34;100.00
46876;BME280;32866;50.160;14.768;2022-12-08T00:41:03;98848.28;;;1.30;100.00
46876;BME280;32866;50.160;14.768;2022-12-08T00:43:30;98832.91;;;1.06;100.00
46876;BME280;32866;50.160;14.768;2022-12-08T00:45:56;98819.41;;;1.02;100.00
46876;BME280;32866;50.160;14.768;2022-12-08T00:48:21;98851.38;;;1.33;100.00
46876;BME280;32866;50.160;14.768;2022-12-08T00:50:46;98849.84;;;1.32;100.00
46876;BME280;32866;50.160;14.768;2022-12-08T00:53:12;98850.59;;;1.36;100.00
46876;BME280;32866;50.160;14.768;2022-12-08T00:55:37;98856.78;;;1.36;100.00
46876;BME280;32866;50.160;14.768;2022-12-08T00:58:02;98855.22;;;1.39;100.00
46876;BME280;32866;50.160;14.768;2022-12-08T01:00:28;98852.91;;;1.30;100.00
46876;BME280;32866;50.160;14.768;2022-12-08T01:02:53;98847.53;;;1.26;100.00
46876;BME280;32866;50.160;14.768;2022-12-08T01:05:18;98860.22;;;1.44;100.00
46876;BME280;32866;50.160;14.768;2022-12-08T01:07:44;98867.19;;;1.34;100.00
46876;BME280;32866;50.160;14.768;2022-12-08T01:10:09;98849.81;;;1.35;100.00
46876;BME280;32866;50.160;14.768;2022-12-08T01:12:35;98861.38;;;1.46;100.00
46876;BME280;32866;50.160;14.768;2022-12-08T01:15:00;98850.56;;;1.54;100.00
46876;BME280;32866;50.160;14.768;2022-12-08T01:17:25;98861.00;;;1.37;100.00
46876;BME280;32866;50.160;14.768;2022-12-08T01:19:51;98864.84;;;1.47;100.00
46876;BME280;32866;50.160;14.768;2022-12-08T01:22:16;98816.69;;;1.09;100.00
46876;BME280;32866;50.160;14.768;2022-12-08T01:24:41;98861.78;;;1.38;100.00
46876;BME280;32866;50.160;14.768;2022-12-08T01:27:07;98814.00;;;1.17;100.00
46876;BME280;32866;50.160;14.768;2022-12-08T01:29:32;98860.22;;;1.40;100.00
46876;BME280;32866;50.160;14.768;2022-12-08T01:31:58;98859.84;;;1.45;100.00
46876;BME280;32866;50.160;14.768;2022-12-08T01:34:23;98855.97;;;1.46;100.00
46876;BME280;32866;50.160;14.768;2022-12-08T01:36:49;98852.13;;;1.44;100.00
46876;BME280;32866;50.160;14.768;2022-12-08T01:39:16;98866.00;;;1.53;100.00
46876;BME280;32866;50.160;14.768;2022-12-08T01:41:43;98855.97;;;1.54;100.00
46876;BME280;32866;50.160;14.768;2022-12-08T01:46:37;98854.41;;;1.63;100.00
46876;BME280;32866;50.160;14.768;2022-12-08T01:49:07;98852.47;;;1.64;100.00
46876;BME280;32866;50.160;14.768;2022-12-08T01:51:42;98834.38;;;1.46;100.00
46876;BME280;32866;50.160;14.768;2022-12-08T01:54:11;98811.25;;;1.42;100.00
46876;BME280;32866;50.160;14.768;2022-12-08T01:56:48;98835.50;;;1.60;100.00
46876;BME280;32866;50.160;14.768;2022-12-08T01:59:17;98818.19;;;1.46;100.00
46876;BME280;32866;50.160;14.768;2022-12-08T02:01:43;98838.19;;;1.67;100.00
46876;BME280;32866;50.160;14.768;2022-12-08T02:04:09;98829.69;;;1.65;100.00
46876;BME280;32866;50.160;14.768;2022-12-08T02:06:38;98834.72;;;1.56;100.00
46876;BME280;32866;50.160;14.768;2022-12-08T02:09:05;98829.72;;;1.51;100.00
46876;BME280;32866;50.160;14.768;2022-12-08T02:11:30;98815.91;;;1.34;100.00
46876;BME280;32866;50.160;14.768;2022-12-08T02:13:57;98822.81;;;1.42;100.00
46876;BME280;32866;50.160;14.768;2022-12-08T02:30:35;98825.91;;;1.37;100.00
46876;BME280;32866;50.160;14.768;2022-12-08T02:41:33;98829.00;;;1.39;100.00
46876;BME280;32866;50.160;14.768;2022-12-08T02:44:11;98822.81;;;1.35;100.00
46876;BME280;32866;50.160;14.768;2022-12-08T02:46:51;98824.78;;;1.31;100.00
46876;BME280;32866;50.160;14.768;2022-12-08T02:49:18;98816.28;;;1.25;100.00
46876;BME280;32866;50.160;14.768;2022-12-08T02:51:43;98757.75;;;0.79;100.00
46876;BME280;32866;50.160;14.768;2022-12-08T02:54:09;98811.31;;;1.02;100.00
46876;BME280;32866;50.160;14.768;2022-12-08T02:56:59;98810.53;;;1.16;100.00
46876;BME280;32866;50.160;14.768;2022-12-08T02:59:40;98805.88;;;1.17;100.00
46876;BME280;32866;50.160;14.768;2022-12-08T03:02:26;98808.19;;;1.18;100.00
46876;BME280;32866;50.160;14.768;2022-12-08T03:10:46;98794.34;;;1.16;100.00
46876;BME280;32866;50.160;14.768;2022-12-08T03:13:20;98775.88;;;0.89;100.00
46876;BME280;32866;50.160;14.768;2022-12-08T03:15:49;98800.50;;;1.17;100.00
46876;BME280;32866;50.160;14.768;2022-12-08T03:18:16;98758.50;;;0.90;100.00
46876;BME280;32866;50.160;14.768;2022-12-08T03:20:44;98799.31;;;1.28;100.00
46876;BME280;32866;50.160;14.768;2022-12-08T03:23:13;98792.38;;;1.31;100.00
46876;BME280;32866;50.160;14.768;2022-12-08T03:25:48;98793.88;;;1.43;100.00
46876;BME280;32866;50.160;14.768;2022-12-08T03:28:16;98789.69;;;1.31;100.00
46876;BME280;32866;50.160;14.768;2022-12-08T03:30:43;98795.03;;;1.45;100.00
46876;BME280;32866;50.160;14.768;2022-12-08T03:33:24;98800.78;;;1.55;100.00
46876;BME280;32866;50.160;14.768;2022-12-08T03:35:51;98793.44;;;1.55;100.00
46876;BME280;32866;50.160;14.768;2022-12-08T03:38:18;98773.03;;;1.43;100.00
46876;BME280;32866;50.160;14.768;2022-12-08T03:40:43;98786.13;;;1.52;100.00
46876;BME280;32866;50.160;14.768;2022-12-08T03:43:29;98773.00;;;1.51;100.00
46876;BME280;32866;50.160;14.768;2022-12-08T03:45:54;98783.41;;;1.56;100.00
46876;BME280;32866;50.160;14.768;2022-12-08T03:48:19;98786.50;;;1.54;100.00
46876;BME280;32866;50.160;14.768;2022-12-08T03:50:45;98754.97;;;1.26;100.00
46876;BME280;32866;50.160;14.768;2022-12-08T03:53:10;98783.41;;;1.56;100.00
46876;BME280;32866;50.160;14.768;2022-12-08T03:55:35;98777.66;;;1.50;100.00
46876;BME280;32866;50.160;14.768;2022-12-08T03:58:01;98766.88;;;1.43;100.00
46876;BME280;32866;50.160;14.768;2022-12-08T04:00:26;98778.47;;;1.36;100.00
46876;BME280;32866;50.160;14.768;2022-12-08T04:02:51;98749.59;;;1.11;100.00
46876;BME280;32866;50.160;14.768;2022-12-08T04:05:17;98772.31;;;1.32;100.00
46876;BME280;32866;50.160;14.768;2022-12-08T04:07:42;98779.66;;;1.24;100.00
46876;BME280;32866;50.160;14.768;2022-12-08T04:10:08;98788.91;;;1.23;100.00
46876;BME280;32866;50.160;14.768;2022-12-08T04:12:33;98772.31;;;1.25;100.00
46876;BME280;32866;50.160;14.768;2022-12-08T04:14:59;98786.56;;;1.40;100.00
46876;BME280;32866;50.160;14.768;2022-12-08T04:17:24;98736.50;;;1.06;100.00
46876;BME280;32866;50.160;14.768;2022-12-08T04:19:49;98758.88;;;1.14;100.00
46876;BME280;32866;50.160;14.768;2022-12-08T04:22:15;98781.94;;;1.40;100.00
46876;BME280;32866;50.160;14.768;2022-12-08T04:24:40;98773.03;;;1.43;100.00
46876;BME280;32866;50.160;14.768;2022-12-08T04:27:05;98746.47;;;1.24;100.00
46876;BME280;32866;50.160;14.768;2022-12-08T04:29:31;98749.59;;;1.26;100.00
46876;BME280;32866;50.160;14.768;2022-12-08T04:31:56;98749.97;;;1.14;100.00
46876;BME280;32866;50.160;14.768;2022-12-08T04:34:21;98754.97;;;1.19;100.00
46876;BME280;32866;50.160;14.768;2022-12-08T04:36:47;98739.22;;;1.06;100.00
46876;BME280;32866;50.160;14.768;2022-12-08T04:39:12;98781.19;;;1.29;100.00
46876;BME280;32866;50.160;14.768;2022-12-08T04:41:37;98775.78;;;1.36;100.00
46876;BME280;32866;50.160;14.768;2022-12-08T04:44:03;98768.06;;;1.31;100.00
46876;BME280;32866;50.160;14.768;2022-12-08T04:46:28;98764.19;;;1.32;100.00
46876;BME280;32866;50.160;14.768;2022-12-08T04:48:53;98716.88;;;0.91;100.00
46876;BME280;32866;50.160;14.768;2022-12-08T04:51:19;98761.94;;;1.20;100.00
46876;BME280;32866;50.160;14.768;2022-12-08T04:53:45;98763.09;;;1.11;100.00
46876;BME280;32866;50.160;14.768;2022-12-08T04:56:13;98765.78;;;1.19;100.00
46876;BME280;32866;50.160;14.768;2022-12-08T04:58:38;98722.28;;;0.91;100.00
46876;BME280;32866;50.160;14.768;2022-12-08T05:01:04;98759.63;;;1.15;100.00
46876;BME280;32866;50.160;14.768;2022-12-08T05:03:29;98776.97;;;1.17;100.00
46876;BME280;32866;50.160;14.768;2022-12-08T05:05:55;98737.69;;;0.98;100.00
46876;BME280;32866;50.160;14.768;2022-12-08T05:08:20;98748.84;;;1.07;100.00
46876;BME280;32866;50.160;14.768;2022-12-08T05:10:45;98751.94;;;1.06;100.00
46876;BME280;32866;50.160;14.768;2022-12-08T05:13:11;98714.19;;;0.88;100.00
46876;BME280;32866;50.160;14.768;2022-12-08T05:15:36;98738.44;;;1.06;100.00
46876;BME280;32866;50.160;14.768;2022-12-08T05:18:04;98747.31;;;1.06;100.00
46876;BME280;32866;50.160;14.768;2022-12-08T05:20:29;98721.53;;;0.77;100.00
46876;BME280;32866;50.160;14.768;2022-12-08T05:22:54;98742.69;;;1.00;100.00
46876;BME280;32866;50.160;14.768;2022-12-08T05:25:20;98718.44;;;0.74;100.00
46876;BME280;32866;50.160;14.768;2022-12-08T05:27:45;98715.38;;;0.72;100.00
46876;BME280;32866;50.160;14.768;2022-12-08T05:30:11;98713.47;;;0.62;100.00
46876;BME280;32866;50.160;14.768;2022-12-08T05:32:36;98700.75;;;0.59;100.00
46876;BME280;32866;50.160;14.768;2022-12-08T05:35:01;98732.34;;;0.69;100.00
46876;BME280;32866;50.160;14.768;2022-12-08T05:37:27;98745.06;;;0.69;100.00
46876;BME280;32866;50.160;14.768;2022-12-08T05:39:52;98737.34;;;0.74;100.00
46876;BME280;32866;50.160;14.768;2022-12-08T05:42:17;98716.53;;;0.53;100.00
46876;BME280;32866;50.160;14.768;2022-12-08T05:44:43;98736.97;;;0.72;100.00
46876;BME280;32866;50.160;14.768;2022-12-08T05:47:08;98733.13;;;0.59;100.00
46876;BME280;32866;50.160;14.768;2022-12-08T05:49:33;98719.63;;;0.52;100.00
46876;BME280;32866;50.160;14.768;2022-12-08T05:51:59;98746.59;;;0.59;100.00
46876;BME280;32866;50.160;14.768;2022-12-08T05:54:24;98738.88;;;0.47;100.00
46876;BME280;32866;50.160;14.768;2022-12-08T05:56:49;98711.56;;;0.30;100.00
46876;BME280;32866;50.160;14.768;2022-12-08T05:59:15;98727.34;;;0.39;100.00
46876;BME280;32866;50.160;14.768;2022-12-08T06:01:41;98734.63;;;0.35;100.00
46876;BME280;32866;50.160;14.768;2022-12-08T06:04:07;98736.56;;;0.31;100.00
46876;BME280;32866;50.160;14.768;2022-12-08T06:06:33;98738.13;;;0.32;100.00
46876;BME280;32866;50.160;14.768;2022-12-08T06:09:02;98732.72;;;0.28;100.00
46876;BME280;32866;50.160;14.768;2022-12-08T06:11:29;98720.38;;;0.20;100.00
46876;BME280;32866;50.160;14.768;2022-12-08T06:13:56;98728.88;;;0.33;100.00
46876;BME280;32866;50.160;14.768;2022-12-08T06:16:23;98729.25;;;0.24;100.00
46876;BME280;32866;50.160;14.768;2022-12-08T06:18:48;98732.72;;;0.25;100.00
46876;BME280;32866;50.160;14.768;2022-12-08T06:21:15;98731.94;;;0.24;100.00
46876;BME280;32866;50.160;14.768;2022-12-08T06:23:42;98703.41;;;-0.06;100.00
46876;BME280;32866;50.160;14.768;2022-12-08T06:26:08;98740.41;;;0.26;100.00
46876;BME280;32866;50.160;14.768;2022-12-08T06:28:35;98718.06;;;0.08;100.00
46876;BME280;32866;50.160;14.768;2022-12-08T06:31:09;98733.47;;;0.07;100.00
46876;BME280;32866;50.160;14.768;2022-12-08T06:33:35;98709.56;;;-0.16;100.00
46876;BME280;32866;50.160;14.768;2022-12-08T06:36:01;98737.31;;;0.03;100.00
46876;BME280;32866;50.160;14.768;2022-12-08T06:38:26;98707.25;;;-0.14;100.00
46876;BME280;32866;50.160;14.768;2022-12-08T06:40:53;98730.41;;;0.05;100.00
46876;BME280;32866;50.160;14.768;2022-12-08T06:43:18;98727.31;;;0.17;100.00
46876;BME280;32866;50.160;14.768;2022-12-08T06:45:44;98732.72;;;0.21;100.00
46876;BME280;32866;50.160;14.768;2022-12-08T06:48:09;98741.19;;;0.23;100.00
46876;BME280;32866;50.160;14.768;2022-12-08T06:50:34;98737.72;;;0.15;100.00
46876;BME280;32866;50.160;14.768;2022-12-08T06:53:00;98743.50;;;0.17;100.00
46876;BME280;32866;50.160;14.768;2022-12-08T06:55:25;98741.97;;;0.34;100.00
46876;BME280;32866;50.160;14.768;2022-12-08T06:57:52;98748.13;;;0.35;100.00
46876;BME280;32866;50.160;14.768;2022-12-08T07:00:17;98749.66;;;0.32;100.00
46876;BME280;32866;50.160;14.768;2022-12-08T07:02:43;98744.28;;;0.25;100.00
46876;BME280;32866;50.160;14.768;2022-12-08T07:05:08;98731.94;;;0.28;100.00
46876;BME280;32866;50.160;14.768;2022-12-08T07:07:33;98714.25;;;0.30;100.00
46876;BME280;32866;50.160;14.768;2022-12-08T07:09:59;98741.97;;;0.45;100.00
46876;BME280;32866;50.160;14.768;2022-12-08T07:12:24;98708.84;;;0.23;100.00
46876;BME280;32866;50.160;14.768;2022-12-08T07:14:49;98713.09;;;0.24;100.00
46876;BME280;32866;50.160;14.768;2022-12-08T07:17:15;98752.75;;;0.38;100.00
46876;BME280;32866;50.160;14.768;2022-12-08T07:19:40;98753.13;;;0.58;100.00
46876;BME280;32866;50.160;14.768;2022-12-08T07:22:05;98736.59;;;0.49;100.00
46876;BME280;32866;50.160;14.768;2022-12-08T07:24:31;98751.97;;;0.81;100.00
46876;BME280;32866;50.160;14.768;2022-12-08T07:26:56;98720.00;;;0.68;100.00
46876;BME280;32866;50.160;14.768;2022-12-08T07:29:21;98748.13;;;0.82;100.00
46876;BME280;32866;50.160;14.768;2022-12-08T07:31:47;98749.66;;;1.01;100.00
46876;BME280;32866;50.160;14.768;2022-12-08T07:34:12;98745.03;;;0.98;100.00
46876;BME280;32866;50.160;14.768;2022-12-08T07:36:38;98741.16;;;1.06;100.00
46876;BME280;32866;50.160;14.768;2022-12-08T07:39:04;98747.31;;;1.06;100.00
46876;BME280;32866;50.160;14.768;2022-12-08T07:41:29;98736.53;;;0.99;100.00
46876;BME280;32866;50.160;14.768;2022-12-08T07:43:55;98752.69;;;1.14;100.00
46876;BME280;32866;50.160;14.768;2022-12-08T07:46:22;98747.66;;;1.16;100.00
46876;BME280;32866;50.160;14.768;2022-12-08T07:48:48;98722.66;;;0.90;100.00
46876;BME280;32866;50.160;14.768;2022-12-08T07:51:15;98727.28;;;0.97;100.00
46876;BME280;32866;50.160;14.768;2022-12-08T07:53:41;98760.38;;;1.19;100.00
46876;BME280;32866;50.160;14.768;2022-12-08T07:56:11;98750.72;;;1.28;100.00
46876;BME280;32866;50.160;14.768;2022-12-08T07:58:36;98748.78;;;1.29;100.00
46876;BME280;32866;50.160;14.768;2022-12-08T08:01:02;98753.41;;;1.39;100.00
46876;BME280;32866;50.160;14.768;2022-12-08T08:03:27;98724.88;;;1.24;100.00
46876;BME280;32866;50.160;14.768;2022-12-08T08:05:53;98754.53;;;1.45;100.00
46876;BME280;32866;50.160;14.768;2022-12-08T08:08:18;98734.88;;;1.41;100.00
46876;BME280;32866;50.160;14.768;2022-12-08T08:10:44;98742.53;;;1.54;100.00
46876;BME280;32866;50.160;14.768;2022-12-08T08:13:09;98767.19;;;1.63;100.00
46876;BME280;32866;50.160;14.768;2022-12-08T08:15:35;98758.69;;;1.68;100.00
46876;BME280;32866;50.160;14.768;2022-12-08T08:18:00;98749.06;;;1.60;100.00
46876;BME280;32866;50.160;14.768;2022-12-08T08:20:26;98738.66;;;1.58;100.00
46876;BME280;32866;50.160;14.768;2022-12-08T08:22:51;98730.94;;;1.57;100.00
46876;BME280;32866;50.160;14.768;2022-12-08T08:25:18;98751.69;;;1.78;100.00
46876;BME280;32866;50.160;14.768;2022-12-08T08:27:44;98743.22;;;1.72;100.00
46876;BME280;32866;50.160;14.768;2022-12-08T08:30:12;98760.91;;;1.84;100.00
46876;BME280;32866;50.160;14.768;2022-12-08T08:32:37;98762.47;;;1.81;100.00
46876;BME280;32866;50.160;14.768;2022-12-08T08:35:03;98767.13;;;1.77;100.00
46876;BME280;32866;50.160;14.768;2022-12-08T08:37:29;98763.63;;;1.80;100.00
46876;BME280;32866;50.160;14.768;2022-12-08T08:39:54;98767.06;;;1.92;100.00
46876;BME280;32866;50.160;14.768;2022-12-08T08:42:21;98760.91;;;1.91;100.00
46876;BME280;32866;50.160;14.768;2022-12-08T08:44:46;98758.19;;;1.91;100.00
46876;BME280;32866;50.160;14.768;2022-12-08T08:47:11;98761.25;;;1.93;100.00
46876;BME280;32866;50.160;14.768;2022-12-08T08:49:37;98757.00;;;1.92;100.00
46876;BME280;32866;50.160;14.768;2022-12-08T08:52:03;98764.31;;;1.99;100.00
46876;BME280;32866;50.160;14.768;2022-12-08T08:54:29;98754.28;;;1.96;100.00
46876;BME280;32866;50.160;14.768;2022-12-08T08:56:56;98756.97;;;1.99;100.00
46876;BME280;32866;50.160;14.768;2022-12-08T08:59:22;98752.34;;;2.00;100.00
46876;BME280;32866;50.160;14.768;2022-12-08T09:01:47;98756.97;;;1.99;100.00
46876;BME280;32866;50.160;14.768;2022-12-08T09:04:12;98740.03;;;1.92;100.00
46876;BME280;32866;50.160;14.768;2022-12-08T09:06:38;98726.91;;;1.94;100.00
46876;BME280;32866;50.160;14.768;2022-12-08T09:09:03;98757.28;;;2.12;100.00
46876;BME280;32866;50.160;14.768;2022-12-08T09:11:29;98768.88;;;2.09;100.00
46876;BME280;32866;50.160;14.768;2022-12-08T09:13:55;98738.44;;;2.01;100.00
46876;BME280;32866;50.160;14.768;2022-12-08T09:16:21;98724.97;;;1.98;100.00
46876;BME280;32866;50.160;14.768;2022-12-08T09:18:46;98767.59;;;2.32;100.00
46876;BME280;32866;50.160;14.768;2022-12-08T09:21:17;98764.09;;;2.35;100.00
46876;BME280;32866;50.160;14.768;2022-12-08T09:23:46;98732.16;;;2.15;100.00
46876;BME280;32866;50.160;14.768;2022-12-08T09:26:12;98755.94;;;2.42;100.00
46876;BME280;32866;50.160;14.768;2022-12-08T09:28:37;98720.59;;;2.15;100.00
46876;BME280;32866;50.160;14.768;2022-12-08T09:31:03;98744.69;;;2.47;100.00
46876;BME280;32866;50.160;14.768;2022-12-08T09:33:29;98737.19;;;2.66;100.00
46876;BME280;32866;50.160;14.768;2022-12-08T09:35:54;98724.59;;;2.48;100.00
46876;BME280;32866;50.160;14.768;2022-12-08T09:38:20;98740.25;;;2.68;100.00
46876;BME280;32866;50.160;14.768;2022-12-08T09:40:51;98742.53;;;2.73;100.00
46876;BME280;32866;50.160;14.768;2022-12-08T09:46:06;98713.78;;;2.48;100.00
46876;BME280;32866;50.160;14.768;2022-12-08T09:48:38;98717.16;;;2.59;100.00
46876;BME280;32866;50.160;14.768;2022-12-08T09:51:04;98740.94;;;2.79;100.00
46876;BME280;32866;50.160;14.768;2022-12-08T09:53:38;98730.13;;;2.79;100.00
46876;BME280;32866;50.160;14.768;2022-12-08T09:56:15;98708.59;;;2.68;100.00
46876;BME280;32866;50.160;14.768;2022-12-08T09:58:52;98713.97;;;2.72;100.00
46876;BME280;32866;50.160;14.768;2022-12-08T10:01:22;98688.50;;;2.66;100.00
46876;BME280;32866;50.160;14.768;2022-12-08T10:03:48;98718.38;;;2.93;100.00
46876;BME280;32866;50.160;14.768;2022-12-08T10:06:35;98719.81;;;3.05;100.00
46876;BME280;32866;50.160;14.768;2022-12-08T10:14:43;98710.66;;;3.29;100.00
46876;BME280;32866;50.160;14.768;2022-12-08T10:17:36;98718.78;;;3.29;100.00
46876;BME280;32866;50.160;14.768;2022-12-08T10:22:37;98710.09;;;3.42;100.00
46876;BME280;32866;50.160;14.768;2022-12-08T10:25:14;98703.53;;;3.43;100.00
46876;BME280;32866;50.160;14.768;2022-12-08T10:27:41;98703.44;;;3.50;100.00
46876;BME280;32866;50.160;14.768;2022-12-08T10:30:13;98687.63;;;3.45;100.00
46876;BME280;32866;50.160;14.768;2022-12-08T10:32:43;98693.28;;;3.58;100.00
46876;BME280;32866;50.160;14.768;2022-12-08T10:35:12;98677.13;;;3.50;100.00
46876;BME280;32866;50.160;14.768;2022-12-08T10:37:38;98688.84;;;3.71;100.00
46876;BME280;32866;50.160;14.768;2022-12-08T10:40:13;98686.53;;;3.69;100.00
46876;BME280;32866;50.160;14.768;2022-12-08T10:42:43;98652.41;;;3.76;100.00
46876;BME280;32866;50.160;14.768;2022-12-08T10:45:19;98665.69;;;4.17;100.00
46876;BME280;32866;50.160;14.768;2022-12-08T10:47:56;98667.66;;;4.40;100.00
46876;BME280;32866;50.160;14.768;2022-12-08T10:53:23;98684.59;;;4.92;100.00
46876;BME280;32866;50.160;14.768;2022-12-08T10:55:50;98684.91;;;4.74;100.00
46876;BME280;32866;50.160;14.768;2022-12-08T10:58:27;98673.50;;;4.82;100.00
46876;BME280;32866;50.160;14.768;2022-12-08T11:00:56;98646.16;;;4.73;100.00
46876;BME280;32866;50.160;14.768;2022-12-08T11:03:28;98673.59;;;4.79;100.00
46876;BME280;32866;50.160;14.768;2022-12-08T11:05:56;98638.16;;;4.66;100.00
46876;BME280;32866;50.160;14.768;2022-12-08T11:08:23;98674.25;;;4.63;100.00
46876;BME280;32866;50.160;14.768;2022-12-08T11:10:48;98661.03;;;4.65;100.00
46876;BME280;32866;50.160;14.768;2022-12-08T11:13:25;98667.41;;;4.98;100.00
46876;BME280;32866;50.160;14.768;2022-12-08T11:15:52;98636.91;;;4.91;100.00
46876;BME280;32866;50.160;14.768;2022-12-08T11:18:29;98656.97;;;4.97;100.00
46876;BME280;32866;50.160;14.768;2022-12-08T11:21:12;98661.41;;;4.87;100.00
46876;BME280;32866;50.160;14.768;2022-12-08T11:23:40;98665.50;;;4.75;100.00
46876;BME280;32866;50.160;14.768;2022-12-08T11:26:16;98635.31;;;4.73;100.00
46876;BME280;32866;50.160;14.768;2022-12-08T11:28:44;98656.69;;;5.11;100.00
46876;BME280;32866;50.160;14.768;2022-12-08T11:31:26;98648.19;;;5.29;100.00
46876;BME280;32866;50.160;14.768;2022-12-08T11:33:53;98656.28;;;5.86;100.00
46876;BME280;32866;50.160;14.768;2022-12-08T11:36:21;98649.63;;;6.07;100.00
46876;BME280;32866;50.160;14.768;2022-12-08T11:38:50;98649.09;;;7.46;100.00
46876;BME280;32866;50.160;14.768;2022-12-08T11:41:19;98647.81;;;7.63;100.00
46876;BME280;32866;50.160;14.768;2022-12-08T11:46:37;98616.88;;;6.73;100.00
46876;BME280;32866;50.160;14.768;2022-12-08T11:49:09;98643.78;;;7.68;100.00
46876;BME280;32866;50.160;14.768;2022-12-08T11:57:27;98644.91;;;9.01;97.34
46876;BME280;32866;50.160;14.768;2022-12-08T11:59:55;98644.78;;;9.89;94.97
46876;BME280;32866;50.160;14.768;2022-12-08T12:02:24;98634.97;;;10.19;90.89
46876;BME280;32866;50.160;14.768;2022-12-08T12:04:57;98638.88;;;10.77;86.90
46876;BME280;32866;50.160;14.768;2022-12-08T12:18:30;98614.19;;;7.92;78.00
46876;BME280;32866;50.160;14.768;2022-12-08T12:21:05;98603.81;;;6.51;85.60
46876;BME280;32866;50.160;14.768;2022-12-08T12:23:41;98630.06;;;6.12;89.30
46876;BME280;32866;50.160;14.768;2022-12-08T12:26:16;98630.63;;;5.70;90.45
46876;BME280;32866;50.160;14.768;2022-12-08T12:28:49;98622.47;;;5.34;93.51
46876;BME280;32866;50.160;14.768;2022-12-08T12:31:20;98626.34;;;5.33;95.83
46876;BME280;32866;50.160;14.768;2022-12-08T12:33:46;98621.75;;;5.13;94.30
46876;BME280;32866;50.160;14.768;2022-12-08T12:36:13;98594.25;;;4.71;96.54
46876;BME280;32866;50.160;14.768;2022-12-08T12:38:46;98620.06;;;4.99;96.30
46876;BME280;32866;50.160;14.768;2022-12-08T12:41:41;98617.72;;;5.01;96.88
46876;BME280;32866;50.160;14.768;2022-12-08T12:54:29;98594.16;;;8.90;74.08
46876;BME280;32866;50.160;14.768;2022-12-08T13:02:37;98583.88;;;9.57;68.84
46876;BME280;32866;50.160;14.768;2022-12-08T13:08:19;98574.34;;;6.33;86.53
46876;BME280;32866;50.160;14.768;2022-12-08T13:11:04;98598.47;;;7.19;85.58
46876;BME280;32866;50.160;14.768;2022-12-08T13:13:30;98583.16;;;6.54;86.85
46876;BME280;32866;50.160;14.768;2022-12-08T13:16:04;98600.59;;;6.98;88.80
46876;BME280;32866;50.160;14.768;2022-12-08T13:18:42;98588.78;;;8.43;81.28
46876;BME280;32866;50.160;14.768;2022-12-08T13:21:13;98593.69;;;9.14;76.94
46876;BME280;32866;50.160;14.768;2022-12-08T13:23:50;98588.09;;;8.96;78.61
46876;BME280;32866;50.160;14.768;2022-12-08T13:26:44;98595.53;;;7.77;81.53
46876;BME280;32866;50.160;14.768;2022-12-08T13:31:54;98589.09;;;6.19;89.87
46876;BME280;32866;50.160;14.768;2022-12-08T13:34:29;98584.47;;;5.50;97.07
46876;BME280;32866;50.160;14.768;2022-12-08T13:42:16;98583.66;;;4.97;98.46
46876;BME280;32866;50.160;14.768;2022-12-08T13:44:50;98560.34;;;4.79;96.60
46876;BME280;32866;50.160;14.768;2022-12-08T13:47:23;98575.03;;;4.62;98.63
46876;BME280;32866;50.160;14.768;2022-12-08T13:52:35;98556.28;;;4.27;100.00
46876;BME280;32866;50.160;14.768;2022-12-08T13:55:04;98548.56;;;4.26;100.00
46876;BME280;32866;50.160;14.768;2022-12-08T13:57:34;98582.53;;;4.34;100.00
46876;BME280;32866;50.160;14.768;2022-12-08T14:00:06;98578.09;;;4.20;100.00
46876;BME280;32866;50.160;14.768;2022-12-08T14:02:35;98578.75;;;4.28;100.00
46876;BME280;32866;50.160;14.768;2022-12-08T14:05:02;98570.47;;;4.35;100.00
46876;BME280;32866;50.160;14.768;2022-12-08T14:07:28;98536.34;;;3.94;100.00
46876;BME280;32866;50.160;14.768;2022-12-08T14:09:53;98537.50;;;3.69;100.00
46876;BME280;32866;50.160;14.768;2022-12-08T14:12:29;98577.28;;;3.76;100.00
46876;BME280;32866;50.160;14.768;2022-12-08T14:15:14;98578.56;;;3.41;100.00
46876;BME280;32866;50.160;14.768;2022-12-08T14:17:40;98573.28;;;3.33;100.00
46876;BME280;32866;50.160;14.768;2022-12-08T14:20:43;98578.72;;;3.30;100.00
46876;BME280;32866;50.160;14.768;2022-12-08T14:23:08;98539.53;;;2.80;100.00
46876;BME280;32866;50.160;14.768;2022-12-08T14:25:34;98580.28;;;2.96;100.00
46876;BME280;32866;50.160;14.768;2022-12-08T14:28:02;98578.50;;;2.86;100.00
46876;BME280;32866;50.160;14.768;2022-12-08T14:30:32;98579.75;;;2.78;100.00